sensor_id;sensor_type;location;lat;lon;timestamp;P1;durP1;ratioP1;P2;durP2;ratioP2
29432;SDS011;16405;53.964;13.448;2023-04-15T00:01:20;175.45;;;62.90;;
29432;SDS011;16405;53.964;13.448;2023-04-15T00:03:54;163.32;;;60.60;;
29432;SDS011;16405;53.964;13.448;2023-04-15T00:06:20;151.98;;;57.38;;
29432;SDS011;16405;53.964;13.448;2023-04-15T00:08:47;148.38;;;56.33;;
29432;SDS011;16405;53.964;13.448;2023-04-15T00:11:14;159.88;;;58.28;;
29432;SDS011;16405;53.964;13.448;2023-04-15T00:13:44;172.55;;;57.92;;
29432;SDS011;16405;53.964;13.448;2023-04-15T00:16:10;161.75;;;56.55;;
29432;SDS011;16405;53.964;13.448;2023-04-15T00:18:36;153.73;;;55.13;;
29432;SDS011;16405;53.964;13.448;2023-04-15T00:21:03;157.05;;;55.30;;
29432;SDS011;16405;53.964;13.448;2023-04-15T00:23:29;159.80;;;57.60;;
29432;SDS011;16405;53.964;13.448;2023-04-15T00:26:03;190.70;;;59.40;;
29432;SDS011;16405;53.964;13.448;2023-04-15T00:28:29;165.55;;;57.65;;
29432;SDS011;16405;53.964;13.448;2023-04-15T00:30:55;160.18;;;54.92;;
29432;SDS011;16405;53.964;13.448;2023-04-15T00:33:21;203.57;;;59.65;;
29432;SDS011;16405;53.964;13.448;2023-04-15T00:35:56;167.38;;;57.97;;
29432;SDS011;16405;53.964;13.448;2023-04-15T00:38:22;149.10;;;55.35;;
29432;SDS011;16405;53.964;13.448;2023-04-15T00:40:47;174.75;;;58.13;;
29432;SDS011;16405;53.964;13.448;2023-04-15T00:43:21;185.25;;;57.55;;
29432;SDS011;16405;53.964;13.448;2023-04-15T00:45:47;163.88;;;56.70;;
29432;SDS011;16405;53.964;13.448;2023-04-15T00:48:13;175.75;;;59.95;;
29432;SDS011;16405;53.964;13.448;2023-04-15T00:50:40;153.43;;;55.72;;
29432;SDS011;16405;53.964;13.448;2023-04-15T00:53:10;154.25;;;55.22;;
29432;SDS011;16405;53.964;13.448;2023-04-15T00:55:36;161.15;;;57.30;;
29432;SDS011;16405;53.964;13.448;2023-04-15T00:58:02;174.90;;;60.00;;
29432;SDS011;16405;53.964;13.448;2023-04-15T01:00:28;201.00;;;62.38;;
29432;SDS011;16405;53.964;13.448;2023-04-15T01:02:55;167.02;;;58.65;;
29432;SDS011;16405;53.964;13.448;2023-04-15T01:05:21;224.55;;;63.05;;
29432;SDS011;16405;53.964;13.448;2023-04-15T01:07:52;178.85;;;58.60;;
29432;SDS011;16405;53.964;13.448;2023-04-15T01:10:20;184.68;;;60.85;;
29432;SDS011;16405;53.964;13.448;2023-04-15T01:12:46;204.18;;;62.72;;
29432;SDS011;16405;53.964;13.448;2023-04-15T01:15:12;175.30;;;56.40;;
29432;SDS011;16405;53.964;13.448;2023-04-15T01:17:45;195.43;;;59.03;;
29432;SDS011;16405;53.964;13.448;2023-04-15T01:20:12;213.70;;;58.45;;
29432;SDS011;16405;53.964;13.448;2023-04-15T01:22:39;164.00;;;58.90;;
29432;SDS011;16405;53.964;13.448;2023-04-15T01:25:17;172.45;;;59.22;;
29432;SDS011;16405;53.964;13.448;2023-04-15T01:27:49;161.10;;;58.25;;
29432;SDS011;16405;53.964;13.448;2023-04-15T01:30:15;165.05;;;56.95;;
29432;SDS011;16405;53.964;13.448;2023-04-15T01:32:41;152.32;;;55.40;;
29432;SDS011;16405;53.964;13.448;2023-04-15T01:35:07;174.15;;;57.65;;
29432;SDS011;16405;53.964;13.448;2023-04-15T01:37:33;163.23;;;55.67;;
29432;SDS011;16405;53.964;13.448;2023-04-15T01:40:08;136.55;;;52.60;;
29432;SDS011;16405;53.964;13.448;2023-04-15T01:42:35;166.32;;;55.42;;
29432;SDS011;16405;53.964;13.448;2023-04-15T01:45:01;175.10;;;57.33;;
29432;SDS011;16405;53.964;13.448;2023-04-15T01:47:28;132.60;;;51.88;;
29432;SDS011;16405;53.964;13.448;2023-04-15T01:50:02;129.45;;;50.25;;
29432;SDS011;16405;53.964;13.448;2023-04-15T01:52:29;155.52;;;55.67;;
29432;SDS011;16405;53.964;13.448;2023-04-15T01:54:56;179.52;;;56.95;;
29432;SDS011;16405;53.964;13.448;2023-04-15T01:57:29;147.38;;;53.58;;
29432;SDS011;16405;53.964;13.448;2023-04-15T01:59:55;136.50;;;50.30;;
29432;SDS011;16405;53.964;13.448;2023-04-15T02:02:21;144.50;;;52.15;;
29432;SDS011;16405;53.964;13.448;2023-04-15T02:04:47;134.00;;;53.92;;
29432;SDS011;16405;53.964;13.448;2023-04-15T02:07:19;158.68;;;56.25;;
29432;SDS011;16405;53.964;13.448;2023-04-15T02:09:45;161.43;;;57.22;;
29432;SDS011;16405;53.964;13.448;2023-04-15T02:12:11;173.90;;;57.58;;
29432;SDS011;16405;53.964;13.448;2023-04-15T02:14:37;150.98;;;55.05;;
29432;SDS011;16405;53.964;13.448;2023-04-15T02:17:03;134.90;;;53.63;;
29432;SDS011;16405;53.964;13.448;2023-04-15T02:19:35;141.48;;;53.97;;
29432;SDS011;16405;53.964;13.448;2023-04-15T02:22:01;144.27;;;54.28;;
29432;SDS011;16405;53.964;13.448;2023-04-15T02:24:27;124.68;;;50.67;;
29432;SDS011;16405;53.964;13.448;2023-04-15T02:26:54;129.60;;;51.78;;
29432;SDS011;16405;53.964;13.448;2023-04-15T02:29:24;132.10;;;52.00;;
29432;SDS011;16405;53.964;13.448;2023-04-15T02:31:52;141.00;;;54.15;;
29432;SDS011;16405;53.964;13.448;2023-04-15T02:34:17;152.57;;;53.92;;
29432;SDS011;16405;53.964;13.448;2023-04-15T02:36:43;136.68;;;52.70;;
29432;SDS011;16405;53.964;13.448;2023-04-15T02:39:11;129.15;;;52.72;;
29432;SDS011;16405;53.964;13.448;2023-04-15T02:41:38;137.18;;;53.05;;
29432;SDS011;16405;53.964;13.448;2023-04-15T02:44:08;130.95;;;52.45;;
29432;SDS011;16405;53.964;13.448;2023-04-15T02:46:33;127.47;;;52.83;;
29432;SDS011;16405;53.964;13.448;2023-04-15T02:49:00;129.10;;;50.78;;
29432;SDS011;16405;53.964;13.448;2023-04-15T02:51:29;114.70;;;46.90;;
29432;SDS011;16405;53.964;13.448;2023-04-15T02:53:57;106.47;;;45.75;;
29432;SDS011;16405;53.964;13.448;2023-04-15T02:56:23;122.30;;;51.28;;
29432;SDS011;16405;53.964;13.448;2023-04-15T02:58:49;115.80;;;50.72;;
29432;SDS011;16405;53.964;13.448;2023-04-15T03:01:15;105.15;;;47.17;;
29432;SDS011;16405;53.964;13.448;2023-04-15T03:03:41;93.30;;;43.15;;
29432;SDS011;16405;53.964;13.448;2023-04-15T03:06:07;106.88;;;45.03;;
29432;SDS011;16405;53.964;13.448;2023-04-15T03:08:40;112.30;;;47.92;;
29432;SDS011;16405;53.964;13.448;2023-04-15T03:11:06;123.28;;;49.80;;
29432;SDS011;16405;53.964;13.448;2023-04-15T03:13:32;118.53;;;48.25;;
29432;SDS011;16405;53.964;13.448;2023-04-15T03:15:58;116.10;;;47.53;;
29432;SDS011;16405;53.964;13.448;2023-04-15T03:18:24;111.55;;;45.65;;
29432;SDS011;16405;53.964;13.448;2023-04-15T03:20:55;94.45;;;42.95;;
29432;SDS011;16405;53.964;13.448;2023-04-15T03:23:21;102.80;;;44.47;;
29432;SDS011;16405;53.964;13.448;2023-04-15T03:25:47;97.70;;;43.38;;
29432;SDS011;16405;53.964;13.448;2023-04-15T03:28:13;93.18;;;42.42;;
29432;SDS011;16405;53.964;13.448;2023-04-15T03:30:38;89.50;;;42.17;;
29432;SDS011;16405;53.964;13.448;2023-04-15T03:33:04;94.72;;;41.15;;
29432;SDS011;16405;53.964;13.448;2023-04-15T03:35:35;79.15;;;38.92;;
29432;SDS011;16405;53.964;13.448;2023-04-15T03:38:01;78.63;;;39.58;;
29432;SDS011;16405;53.964;13.448;2023-04-15T03:40:27;82.95;;;40.47;;
29432;SDS011;16405;53.964;13.448;2023-04-15T03:42:54;72.50;;;36.80;;
29432;SDS011;16405;53.964;13.448;2023-04-15T03:45:20;78.75;;;38.53;;
29432;SDS011;16405;53.964;13.448;2023-04-15T03:47:51;74.43;;;37.28;;
29432;SDS011;16405;53.964;13.448;2023-04-15T03:50:17;71.38;;;34.78;;
29432;SDS011;16405;53.964;13.448;2023-04-15T03:52:43;76.82;;;37.60;;
29432;SDS011;16405;53.964;13.448;2023-04-15T03:55:09;72.78;;;36.38;;
29432;SDS011;16405;53.964;13.448;2023-04-15T03:57:35;66.07;;;34.83;;
29432;SDS011;16405;53.964;13.448;2023-04-15T04:00:03;68.40;;;35.90;;
29432;SDS011;16405;53.964;13.448;2023-04-15T04:02:34;51.38;;;26.50;;
29432;SDS011;16405;53.964;13.448;2023-04-15T04:05:00;66.50;;;34.58;;
29432;SDS011;16405;53.964;13.448;2023-04-15T04:07:26;61.20;;;33.22;;
29432;SDS011;16405;53.964;13.448;2023-04-15T04:09:52;66.32;;;34.78;;
29432;SDS011;16405;53.964;13.448;2023-04-15T04:12:23;62.05;;;31.85;;
29432;SDS011;16405;53.964;13.448;2023-04-15T04:14:49;66.55;;;33.40;;
29432;SDS011;16405;53.964;13.448;2023-04-15T04:17:15;60.30;;;31.80;;
29432;SDS011;16405;53.964;13.448;2023-04-15T04:19:41;52.45;;;27.95;;
29432;SDS011;16405;53.964;13.448;2023-04-15T04:22:07;54.58;;;29.20;;
29432;SDS011;16405;53.964;13.448;2023-04-15T04:24:32;50.42;;;26.85;;
29432;SDS011;16405;53.964;13.448;2023-04-15T04:27:07;51.70;;;28.40;;
29432;SDS011;16405;53.964;13.448;2023-04-15T04:29:33;51.05;;;27.65;;
29432;SDS011;16405;53.964;13.448;2023-04-15T04:31:59;51.05;;;26.55;;
29432;SDS011;16405;53.964;13.448;2023-04-15T04:34:25;41.78;;;22.20;;
29432;SDS011;16405;53.964;13.448;2023-04-15T04:36:55;45.30;;;25.85;;
29432;SDS011;16405;53.964;13.448;2023-04-15T04:39:21;36.13;;;21.90;;
29432;SDS011;16405;53.964;13.448;2023-04-15T04:41:47;47.55;;;27.55;;
29432;SDS011;16405;53.964;13.448;2023-04-15T04:44:13;38.50;;;21.15;;
29432;SDS011;16405;53.964;13.448;2023-04-15T04:46:39;38.65;;;21.35;;
29432;SDS011;16405;53.964;13.448;2023-04-15T04:49:05;40.13;;;24.23;;
29432;SDS011;16405;53.964;13.448;2023-04-15T04:51:38;41.63;;;20.98;;
29432;SDS011;16405;53.964;13.448;2023-04-15T04:54:04;36.92;;;20.42;;
29432;SDS011;16405;53.964;13.448;2023-04-15T04:56:30;41.60;;;22.63;;
29432;SDS011;16405;53.964;13.448;2023-04-15T04:58:56;40.20;;;24.85;;
29432;SDS011;16405;53.964;13.448;2023-04-15T05:01:27;37.72;;;20.85;;
29432;SDS011;16405;53.964;13.448;2023-04-15T05:03:54;36.92;;;21.98;;
29432;SDS011;16405;53.964;13.448;2023-04-15T05:06:20;30.88;;;19.85;;
29432;SDS011;16405;53.964;13.448;2023-04-15T05:08:46;30.10;;;18.30;;
29432;SDS011;16405;53.964;13.448;2023-04-15T05:11:12;24.55;;;14.02;;
29432;SDS011;16405;53.964;13.448;2023-04-15T05:13:44;19.83;;;10.55;;
29432;SDS011;16405;53.964;13.448;2023-04-15T05:16:10;27.63;;;15.30;;
29432;SDS011;16405;53.964;13.448;2023-04-15T05:18:36;27.88;;;18.35;;
29432;SDS011;16405;53.964;13.448;2023-04-15T05:21:02;21.90;;;14.02;;
29432;SDS011;16405;53.964;13.448;2023-04-15T05:23:28;25.42;;;14.70;;
29432;SDS011;16405;53.964;13.448;2023-04-15T05:26:01;22.42;;;15.55;;
29432;SDS011;16405;53.964;13.448;2023-04-15T05:28:27;26.75;;;15.85;;
29432;SDS011;16405;53.964;13.448;2023-04-15T05:30:53;23.67;;;14.10;;
29432;SDS011;16405;53.964;13.448;2023-04-15T05:33:19;26.05;;;14.35;;
29432;SDS011;16405;53.964;13.448;2023-04-15T05:35:45;22.95;;;14.45;;
29432;SDS011;16405;53.964;13.448;2023-04-15T05:38:16;25.40;;;15.07;;
29432;SDS011;16405;53.964;13.448;2023-04-15T05:40:42;26.20;;;13.77;;
29432;SDS011;16405;53.964;13.448;2023-04-15T05:43:08;20.35;;;13.82;;
29432;SDS011;16405;53.964;13.448;2023-04-15T05:45:34;23.23;;;12.77;;
29432;SDS011;16405;53.964;13.448;2023-04-15T05:48:00;18.70;;;11.68;;
29432;SDS011;16405;53.964;13.448;2023-04-15T05:50:30;20.92;;;13.57;;
29432;SDS011;16405;53.964;13.448;2023-04-15T05:52:56;23.80;;;13.00;;
29432;SDS011;16405;53.964;13.448;2023-04-15T05:55:22;23.40;;;12.18;;
29432;SDS011;16405;53.964;13.448;2023-04-15T05:57:48;14.45;;;9.40;;
29432;SDS011;16405;53.964;13.448;2023-04-15T06:00:14;19.95;;;13.32;;
29432;SDS011;16405;53.964;13.448;2023-04-15T06:02:40;23.10;;;14.00;;
29432;SDS011;16405;53.964;13.448;2023-04-15T06:05:13;15.45;;;9.82;;
29432;SDS011;16405;53.964;13.448;2023-04-15T06:07:39;24.35;;;14.32;;
29432;SDS011;16405;53.964;13.448;2023-04-15T06:10:05;19.92;;;11.90;;
29432;SDS011;16405;53.964;13.448;2023-04-15T06:12:32;24.42;;;13.45;;
29432;SDS011;16405;53.964;13.448;2023-04-15T06:15:05;22.42;;;15.02;;
29432;SDS011;16405;53.964;13.448;2023-04-15T06:17:34;21.38;;;13.82;;
29432;SDS011;16405;53.964;13.448;2023-04-15T06:20:01;21.70;;;14.10;;
29432;SDS011;16405;53.964;13.448;2023-04-15T06:22:32;28.85;;;16.77;;
29432;SDS011;16405;53.964;13.448;2023-04-15T06:24:58;33.75;;;15.95;;
29432;SDS011;16405;53.964;13.448;2023-04-15T06:27:24;23.52;;;13.68;;
29432;SDS011;16405;53.964;13.448;2023-04-15T06:29:49;26.40;;;14.98;;
29432;SDS011;16405;53.964;13.448;2023-04-15T06:32:15;24.52;;;13.02;;
29432;SDS011;16405;53.964;13.448;2023-04-15T06:34:41;31.35;;;16.67;;
29432;SDS011;16405;53.964;13.448;2023-04-15T06:37:11;25.08;;;17.25;;
29432;SDS011;16405;53.964;13.448;2023-04-15T06:39:40;20.13;;;12.27;;
29432;SDS011;16405;53.964;13.448;2023-04-15T06:42:07;22.77;;;13.15;;
29432;SDS011;16405;53.964;13.448;2023-04-15T06:44:38;28.55;;;18.48;;
29432;SDS011;16405;53.964;13.448;2023-04-15T06:47:04;23.85;;;15.57;;
29432;SDS011;16405;53.964;13.448;2023-04-15T06:49:30;24.00;;;13.90;;
29432;SDS011;16405;53.964;13.448;2023-04-15T06:51:57;29.95;;;18.02;;
29432;SDS011;16405;53.964;13.448;2023-04-15T06:54:31;35.67;;;20.20;;
29432;SDS011;16405;53.964;13.448;2023-04-15T06:56:57;18.40;;;11.23;;
29432;SDS011;16405;53.964;13.448;2023-04-15T06:59:23;29.38;;;18.15;;
29432;SDS011;16405;53.964;13.448;2023-04-15T07:01:49;24.33;;;15.65;;
29432;SDS011;16405;53.964;13.448;2023-04-15T07:04:15;28.75;;;19.25;;
29432;SDS011;16405;53.964;13.448;2023-04-15T07:06:41;18.70;;;11.18;;
29432;SDS011;16405;53.964;13.448;2023-04-15T07:09:11;24.88;;;14.18;;
29432;SDS011;16405;53.964;13.448;2023-04-15T07:11:37;28.60;;;18.20;;
29432;SDS011;16405;53.964;13.448;2023-04-15T07:14:03;29.05;;;17.35;;
29432;SDS011;16405;53.964;13.448;2023-04-15T07:16:29;33.33;;;20.45;;
29432;SDS011;16405;53.964;13.448;2023-04-15T07:18:55;29.20;;;19.17;;
29432;SDS011;16405;53.964;13.448;2023-04-15T07:21:21;28.73;;;16.60;;
29432;SDS011;16405;53.964;13.448;2023-04-15T07:23:51;23.90;;;13.85;;
29432;SDS011;16405;53.964;13.448;2023-04-15T07:26:17;26.20;;;17.30;;
29432;SDS011;16405;53.964;13.448;2023-04-15T07:28:43;23.00;;;15.98;;
29432;SDS011;16405;53.964;13.448;2023-04-15T07:31:10;25.95;;;18.15;;
29432;SDS011;16405;53.964;13.448;2023-04-15T07:33:36;22.23;;;12.85;;
29432;SDS011;16405;53.964;13.448;2023-04-15T07:36:08;19.05;;;12.18;;
29432;SDS011;16405;53.964;13.448;2023-04-15T07:38:34;20.05;;;14.10;;
29432;SDS011;16405;53.964;13.448;2023-04-15T07:41:00;33.28;;;19.58;;
29432;SDS011;16405;53.964;13.448;2023-04-15T07:43:26;22.83;;;14.75;;
29432;SDS011;16405;53.964;13.448;2023-04-15T07:45:52;19.95;;;10.38;;
29432;SDS011;16405;53.964;13.448;2023-04-15T07:48:24;25.05;;;13.90;;
29432;SDS011;16405;53.964;13.448;2023-04-15T07:50:49;25.05;;;12.52;;
29432;SDS011;16405;53.964;13.448;2023-04-15T07:53:15;22.55;;;14.65;;
29432;SDS011;16405;53.964;13.448;2023-04-15T07:55:41;29.20;;;15.80;;
29432;SDS011;16405;53.964;13.448;2023-04-15T07:58:07;24.17;;;15.60;;
29432;SDS011;16405;53.964;13.448;2023-04-15T08:00:39;24.25;;;16.80;;
29432;SDS011;16405;53.964;13.448;2023-04-15T08:03:05;25.73;;;16.35;;
29432;SDS011;16405;53.964;13.448;2023-04-15T08:05:31;20.33;;;12.45;;
29432;SDS011;16405;53.964;13.448;2023-04-15T08:07:57;16.55;;;9.30;;
29432;SDS011;16405;53.964;13.448;2023-04-15T08:10:23;25.85;;;15.63;;
29432;SDS011;16405;53.964;13.448;2023-04-15T08:12:56;22.25;;;15.45;;
29432;SDS011;16405;53.964;13.448;2023-04-15T08:15:22;24.50;;;15.63;;
29432;SDS011;16405;53.964;13.448;2023-04-15T08:17:48;21.55;;;14.48;;
29432;SDS011;16405;53.964;13.448;2023-04-15T08:20:14;22.88;;;15.43;;
29432;SDS011;16405;53.964;13.448;2023-04-15T08:22:40;25.55;;;13.38;;
29432;SDS011;16405;53.964;13.448;2023-04-15T08:25:15;22.42;;;15.63;;
29432;SDS011;16405;53.964;13.448;2023-04-15T08:27:41;17.67;;;10.43;;
29432;SDS011;16405;53.964;13.448;2023-04-15T08:30:07;22.55;;;15.85;;
29432;SDS011;16405;53.964;13.448;2023-04-15T08:32:44;23.70;;;14.55;;
29432;SDS011;16405;53.964;13.448;2023-04-15T08:35:11;24.67;;;15.70;;
29432;SDS011;16405;53.964;13.448;2023-04-15T08:37:37;23.40;;;15.98;;
29432;SDS011;16405;53.964;13.448;2023-04-15T08:40:09;15.15;;;9.45;;
29432;SDS011;16405;53.964;13.448;2023-04-15T08:42:36;20.60;;;14.63;;
29432;SDS011;16405;53.964;13.448;2023-04-15T08:45:16;23.15;;;15.57;;
29432;SDS011;16405;53.964;13.448;2023-04-15T08:47:43;22.95;;;11.13;;
29432;SDS011;16405;53.964;13.448;2023-04-15T08:50:20;16.20;;;10.32;;
29432;SDS011;16405;53.964;13.448;2023-04-15T08:52:48;27.30;;;11.15;;
29432;SDS011;16405;53.964;13.448;2023-04-15T08:55:19;24.95;;;16.30;;
29432;SDS011;16405;53.964;13.448;2023-04-15T08:57:46;27.27;;;13.38;;
29432;SDS011;16405;53.964;13.448;2023-04-15T09:00:14;17.10;;;11.52;;
29432;SDS011;16405;53.964;13.448;2023-04-15T09:02:50;28.35;;;14.60;;
29432;SDS011;16405;53.964;13.448;2023-04-15T09:05:16;18.80;;;12.32;;
29432;SDS011;16405;53.964;13.448;2023-04-15T09:08:03;23.63;;;14.88;;
29432;SDS011;16405;53.964;13.448;2023-04-15T09:10:34;18.75;;;12.15;;
29432;SDS011;16405;53.964;13.448;2023-04-15T09:13:00;24.55;;;15.10;;
29432;SDS011;16405;53.964;13.448;2023-04-15T09:15:27;20.25;;;11.77;;
29432;SDS011;16405;53.964;13.448;2023-04-15T09:18:03;22.02;;;15.93;;
29432;SDS011;16405;53.964;13.448;2023-04-15T09:20:39;23.15;;;14.57;;
29432;SDS011;16405;53.964;13.448;2023-04-15T09:23:13;24.05;;;14.27;;
29432;SDS011;16405;53.964;13.448;2023-04-15T09:25:44;24.25;;;12.50;;
29432;SDS011;16405;53.964;13.448;2023-04-15T09:28:11;24.13;;;15.45;;
29432;SDS011;16405;53.964;13.448;2023-04-15T09:30:41;20.17;;;15.13;;
29432;SDS011;16405;53.964;13.448;2023-04-15T09:33:17;28.75;;;15.93;;
29432;SDS011;16405;53.964;13.448;2023-04-15T09:35:56;29.85;;;16.88;;
29432;SDS011;16405;53.964;13.448;2023-04-15T09:38:53;26.23;;;15.60;;
29432;SDS011;16405;53.964;13.448;2023-04-15T09:41:28;27.48;;;14.10;;
29432;SDS011;16405;53.964;13.448;2023-04-15T09:43:57;18.02;;;10.52;;
29432;SDS011;16405;53.964;13.448;2023-04-15T09:46:44;18.40;;;13.98;;
29432;SDS011;16405;53.964;13.448;2023-04-15T09:49:18;19.85;;;12.65;;
29432;SDS011;16405;53.964;13.448;2023-04-15T09:51:56;18.10;;;12.30;;
29432;SDS011;16405;53.964;13.448;2023-04-15T09:57:13;20.38;;;14.52;;
29432;SDS011;16405;53.964;13.448;2023-04-15T09:59:39;19.08;;;10.93;;
29432;SDS011;16405;53.964;13.448;2023-04-15T10:02:06;20.92;;;12.48;;
29432;SDS011;16405;53.964;13.448;2023-04-15T10:04:40;23.45;;;14.02;;
29432;SDS011;16405;53.964;13.448;2023-04-15T10:07:11;15.65;;;11.57;;
29432;SDS011;16405;53.964;13.448;2023-04-15T10:09:58;23.17;;;11.97;;
29432;SDS011;16405;53.964;13.448;2023-04-15T10:12:26;16.67;;;10.43;;
29432;SDS011;16405;53.964;13.448;2023-04-15T10:15:06;22.58;;;15.90;;
29432;SDS011;16405;53.964;13.448;2023-04-15T10:17:48;22.88;;;13.40;;
29432;SDS011;16405;53.964;13.448;2023-04-15T10:20:23;23.75;;;14.75;;
29432;SDS011;16405;53.964;13.448;2023-04-15T10:23:06;24.47;;;13.70;;
29432;SDS011;16405;53.964;13.448;2023-04-15T10:25:36;21.60;;;15.98;;
29432;SDS011;16405;53.964;13.448;2023-04-15T10:28:21;23.27;;;14.05;;
29432;SDS011;16405;53.964;13.448;2023-04-15T10:30:51;22.08;;;13.73;;
29432;SDS011;16405;53.964;13.448;2023-04-15T10:33:19;17.98;;;11.73;;
29432;SDS011;16405;53.964;13.448;2023-04-15T10:35:53;26.95;;;16.80;;
29432;SDS011;16405;53.964;13.448;2023-04-15T10:38:51;22.60;;;16.63;;
29432;SDS011;16405;53.964;13.448;2023-04-15T10:43:56;22.73;;;14.25;;
29432;SDS011;16405;53.964;13.448;2023-04-15T10:46:50;23.23;;;16.60;;
29432;SDS011;16405;53.964;13.448;2023-04-15T10:49:23;28.13;;;15.50;;
29432;SDS011;16405;53.964;13.448;2023-04-15T10:51:58;26.73;;;17.85;;
29432;SDS011;16405;53.964;13.448;2023-04-15T10:54:39;21.30;;;13.82;;
29432;SDS011;16405;53.964;13.448;2023-04-15T10:57:33;26.85;;;15.40;;
29432;SDS011;16405;53.964;13.448;2023-04-15T11:00:14;23.35;;;14.98;;
29432;SDS011;16405;53.964;13.448;2023-04-15T11:02:52;24.05;;;16.20;;
29432;SDS011;16405;53.964;13.448;2023-04-15T11:08:14;21.35;;;15.07;;
29432;SDS011;16405;53.964;13.448;2023-04-15T11:13:16;27.45;;;17.05;;
29432;SDS011;16405;53.964;13.448;2023-04-15T11:15:59;19.92;;;13.43;;
29432;SDS011;16405;53.964;13.448;2023-04-15T11:18:37;27.70;;;16.70;;
29432;SDS011;16405;53.964;13.448;2023-04-15T11:21:17;24.73;;;16.92;;
29432;SDS011;16405;53.964;13.448;2023-04-15T11:24:22;24.88;;;17.05;;
29432;SDS011;16405;53.964;13.448;2023-04-15T11:26:56;27.48;;;17.17;;
29432;SDS011;16405;53.964;13.448;2023-04-15T11:29:29;27.63;;;18.48;;
29432;SDS011;16405;53.964;13.448;2023-04-15T11:32:07;27.85;;;17.92;;
29432;SDS011;16405;53.964;13.448;2023-04-15T11:34:37;31.40;;;17.92;;
29432;SDS011;16405;53.964;13.448;2023-04-15T11:37:04;27.20;;;18.13;;
29432;SDS011;16405;53.964;13.448;2023-04-15T11:39:37;31.33;;;18.60;;
29432;SDS011;16405;53.964;13.448;2023-04-15T11:42:15;27.13;;;18.83;;
29432;SDS011;16405;53.964;13.448;2023-04-15T11:45:12;29.83;;;18.75;;
29432;SDS011;16405;53.964;13.448;2023-04-15T11:47:40;27.42;;;19.33;;
29432;SDS011;16405;53.964;13.448;2023-04-15T11:50:17;31.38;;;18.67;;
29432;SDS011;16405;53.964;13.448;2023-04-15T11:52:58;31.77;;;19.58;;
29432;SDS011;16405;53.964;13.448;2023-04-15T11:55:27;33.80;;;20.13;;
29432;SDS011;16405;53.964;13.448;2023-04-15T11:58:34;29.75;;;19.35;;
29432;SDS011;16405;53.964;13.448;2023-04-15T12:01:13;33.22;;;19.60;;
29432;SDS011;16405;53.964;13.448;2023-04-15T12:03:40;30.30;;;21.02;;
29432;SDS011;16405;53.964;13.448;2023-04-15T12:06:35;26.70;;;16.73;;
29432;SDS011;16405;53.964;13.448;2023-04-15T12:09:12;27.67;;;18.90;;
29432;SDS011;16405;53.964;13.448;2023-04-15T12:16:41;32.92;;;19.70;;
29432;SDS011;16405;53.964;13.448;2023-04-15T12:19:10;30.20;;;16.15;;
29432;SDS011;16405;53.964;13.448;2023-04-15T12:21:44;27.65;;;19.50;;
29432;SDS011;16405;53.964;13.448;2023-04-15T12:24:12;29.90;;;19.70;;
29432;SDS011;16405;53.964;13.448;2023-04-15T12:26:48;27.27;;;17.27;;
29432;SDS011;16405;53.964;13.448;2023-04-15T12:29:26;31.90;;;18.63;;
29432;SDS011;16405;53.964;13.448;2023-04-15T12:31:57;31.38;;;19.20;;
29432;SDS011;16405;53.964;13.448;2023-04-15T12:34:38;26.58;;;13.60;;
29432;SDS011;16405;53.964;13.448;2023-04-15T12:37:17;25.40;;;18.00;;
29432;SDS011;16405;53.964;13.448;2023-04-15T12:39:52;34.03;;;18.73;;
29432;SDS011;16405;53.964;13.448;2023-04-15T12:42:18;27.15;;;17.77;;
29432;SDS011;16405;53.964;13.448;2023-04-15T12:44:47;23.95;;;12.55;;
29432;SDS011;16405;53.964;13.448;2023-04-15T12:47:22;25.67;;;15.35;;
29432;SDS011;16405;53.964;13.448;2023-04-15T12:49:50;27.90;;;17.70;;
29432;SDS011;16405;53.964;13.448;2023-04-15T12:52:27;28.02;;;18.95;;
29432;SDS011;16405;53.964;13.448;2023-04-15T12:55:03;21.27;;;13.73;;
29432;SDS011;16405;53.964;13.448;2023-04-15T12:57:29;30.05;;;18.08;;
29432;SDS011;16405;53.964;13.448;2023-04-15T12:59:55;24.15;;;15.43;;
29432;SDS011;16405;53.964;13.448;2023-04-15T13:02:32;28.15;;;18.38;;
29432;SDS011;16405;53.964;13.448;2023-04-15T13:04:59;23.80;;;15.40;;
29432;SDS011;16405;53.964;13.448;2023-04-15T13:07:27;27.85;;;18.33;;
29432;SDS011;16405;53.964;13.448;2023-04-15T13:09:55;28.50;;;18.08;;
29432;SDS011;16405;53.964;13.448;2023-04-15T13:12:23;25.35;;;17.75;;
29432;SDS011;16405;53.964;13.448;2023-04-15T13:14:49;24.80;;;16.10;;
29432;SDS011;16405;53.964;13.448;2023-04-15T13:17:17;29.55;;;17.00;;
29432;SDS011;16405;53.964;13.448;2023-04-15T13:19:54;28.88;;;17.05;;
29432;SDS011;16405;53.964;13.448;2023-04-15T13:22:20;26.02;;;17.48;;
29432;SDS011;16405;53.964;13.448;2023-04-15T13:24:46;21.23;;;13.77;;
29432;SDS011;16405;53.964;13.448;2023-04-15T13:27:21;32.25;;;16.98;;
29432;SDS011;16405;53.964;13.448;2023-04-15T13:29:47;28.85;;;18.17;;
29432;SDS011;16405;53.964;13.448;2023-04-15T13:32:13;25.00;;;15.27;;
29432;SDS011;16405;53.964;13.448;2023-04-15T13:34:38;26.98;;;17.10;;
29432;SDS011;16405;53.964;13.448;2023-04-15T13:37:13;24.40;;;14.73;;
29432;SDS011;16405;53.964;13.448;2023-04-15T13:39:39;21.35;;;12.52;;
29432;SDS011;16405;53.964;13.448;2023-04-15T13:42:08;23.13;;;15.93;;
29432;SDS011;16405;53.964;13.448;2023-04-15T13:44:39;29.02;;;17.63;;
29432;SDS011;16405;53.964;13.448;2023-04-15T13:47:05;27.95;;;18.23;;
29432;SDS011;16405;53.964;13.448;2023-04-15T13:49:42;34.28;;;19.70;;
29432;SDS011;16405;53.964;13.448;2023-04-15T13:52:24;25.95;;;16.73;;
29432;SDS011;16405;53.964;13.448;2023-04-15T13:54:50;25.20;;;13.80;;
29432;SDS011;16405;53.964;13.448;2023-04-15T14:00:11;27.33;;;14.27;;
29432;SDS011;16405;53.964;13.448;2023-04-15T14:02:38;25.33;;;16.35;;
29432;SDS011;16405;53.964;13.448;2023-04-15T14:05:30;30.15;;;16.98;;
29432;SDS011;16405;53.964;13.448;2023-04-15T14:07:58;31.42;;;20.35;;
29432;SDS011;16405;53.964;13.448;2023-04-15T14:13:12;25.50;;;16.42;;
29432;SDS011;16405;53.964;13.448;2023-04-15T14:15:39;33.00;;;18.33;;
29432;SDS011;16405;53.964;13.448;2023-04-15T14:21:00;29.33;;;18.90;;
29432;SDS011;16405;53.964;13.448;2023-04-15T14:23:34;28.98;;;18.17;;
29432;SDS011;16405;53.964;13.448;2023-04-15T14:26:00;34.78;;;18.08;;
29432;SDS011;16405;53.964;13.448;2023-04-15T14:28:26;29.23;;;18.08;;
29432;SDS011;16405;53.964;13.448;2023-04-15T14:31:05;30.95;;;17.33;;
29432;SDS011;16405;53.964;13.448;2023-04-15T14:33:41;35.72;;;18.02;;
29432;SDS011;16405;53.964;13.448;2023-04-15T14:36:10;27.48;;;16.48;;
29432;SDS011;16405;53.964;13.448;2023-04-15T14:38:36;30.85;;;16.67;;
29432;SDS011;16405;53.964;13.448;2023-04-15T14:41:12;27.48;;;16.85;;
29432;SDS011;16405;53.964;13.448;2023-04-15T14:43:38;33.00;;;16.95;;
29432;SDS011;16405;53.964;13.448;2023-04-15T14:46:16;26.20;;;13.65;;